East Barre, Vermont
Current Conditions -  °F | °C
As of 1:51 PM on Friday 31 Oct 2014 (Local Time) from KMPV Reporting Station
Clear Clear  
Wind Chill: 45°   Ceiling: Unl
Heat Index: 45°   Visibility: 10mi
Dew Point: 25°   Wind: 0mph
Humidity: 46%   Direction: NA
Pressure: 30.03"   Gusts: NA
Location:  44.16°N, 72.45°W
Report Text: KMPV 311751Z AUTO 00000KT 10SM CLR 07/M04 A3003 RMK AO2 SLP178 T00721039 10078 21011 56010
Loading
Personal Weather Stations






























Interactive Weather Map
Tropical Storm Tracking
New forecast layout! Learn more

10-Day Weather Forecast

Advertisements
Track Severe Weather on mobile